sensor_id;sensor_type;location;lat;lon;timestamp;temperature;humidity
30328;DHT22;17133;52.418;13.398;2022-08-11T00:01:04;19.40;86.70
30328;DHT22;17133;52.418;13.398;2022-08-11T00:03:30;19.40;87.20
30328;DHT22;17133;52.418;13.398;2022-08-11T00:05:57;19.30;88.10
30328;DHT22;17133;52.418;13.398;2022-08-11T00:08:25;19.20;88.30
30328;DHT22;17133;52.418;13.398;2022-08-11T00:10:57;19.20;89.20
30328;DHT22;17133;52.418;13.398;2022-08-11T00:13:36;19.10;89.90
30328;DHT22;17133;52.418;13.398;2022-08-11T00:16:11;19.10;90.50
30328;DHT22;17133;52.418;13.398;2022-08-11T00:18:46;19.10;90.60
30328;DHT22;17133;52.418;13.398;2022-08-11T00:21:13;19.00;90.70
30328;DHT22;17133;52.418;13.398;2022-08-11T00:23:52;19.00;91.10
30328;DHT22;17133;52.418;13.398;2022-08-11T00:26:18;18.90;91.30
30328;DHT22;17133;52.418;13.398;2022-08-11T00:28:45;18.90;91.80
30328;DHT22;17133;52.418;13.398;2022-08-11T00:31:25;18.90;92.20
30328;DHT22;17133;52.418;13.398;2022-08-11T00:33:52;18.90;92.50
30328;DHT22;17133;52.418;13.398;2022-08-11T00:36:22;18.80;93.10
30328;DHT22;17133;52.418;13.398;2022-08-11T00:38:51;18.80;93.40
30328;DHT22;17133;52.418;13.398;2022-08-11T00:59:01;18.50;96.40
30328;DHT22;17133;52.418;13.398;2022-08-11T01:07:23;18.50;99.90
30328;DHT22;17133;52.418;13.398;2022-08-11T01:10:22;18.50;99.90
30328;DHT22;17133;52.418;13.398;2022-08-11T01:32:13;18.40;99.90
30328;DHT22;17133;52.418;13.398;2022-08-11T01:43:38;18.20;99.90
30328;DHT22;17133;52.418;13.398;2022-08-11T01:46:38;18.20;99.90
30328;DHT22;17133;52.418;13.398;2022-08-11T01:49:26;18.10;99.90
30328;DHT22;17133;52.418;13.398;2022-08-11T01:52:18;18.00;99.90
30328;DHT22;17133;52.418;13.398;2022-08-11T01:58:09;17.90;99.90
30328;DHT22;17133;52.418;13.398;2022-08-11T02:00:49;17.80;99.90
30328;DHT22;17133;52.418;13.398;2022-08-11T02:03:28;17.80;99.90
30328;DHT22;17133;52.418;13.398;2022-08-11T02:06:09;17.80;99.90
30328;DHT22;17133;52.418;13.398;2022-08-11T02:09:12;17.70;99.90
30328;DHT22;17133;52.418;13.398;2022-08-11T02:11:40;17.70;99.90
30328;DHT22;17133;52.418;13.398;2022-08-11T02:14:53;17.70;99.90
30328;DHT22;17133;52.418;13.398;2022-08-11T02:17:36;17.60;99.90
30328;DHT22;17133;52.418;13.398;2022-08-11T02:20:34;17.60;99.90
30328;DHT22;17133;52.418;13.398;2022-08-11T02:23:31;17.60;99.90
30328;DHT22;17133;52.418;13.398;2022-08-11T02:26:23;17.50;99.90
30328;DHT22;17133;52.418;13.398;2022-08-11T02:29:16;17.50;99.90
30328;DHT22;17133;52.418;13.398;2022-08-11T02:34:45;17.40;99.90
30328;DHT22;17133;52.418;13.398;2022-08-11T02:37:32;17.40;99.90
30328;DHT22;17133;52.418;13.398;2022-08-11T02:40:14;17.30;99.90
30328;DHT22;17133;52.418;13.398;2022-08-11T02:45:29;17.30;99.90
30328;DHT22;17133;52.418;13.398;2022-08-11T02:51:39;17.20;99.90
30328;DHT22;17133;52.418;13.398;2022-08-11T02:54:16;17.70;99.90
30328;DHT22;17133;52.418;13.398;2022-08-11T02:57:18;17.10;99.90
30328;DHT22;17133;52.418;13.398;2022-08-11T03:00:08;17.10;99.90
30328;DHT22;17133;52.418;13.398;2022-08-11T03:05:25;17.00;99.90
30328;DHT22;17133;52.418;13.398;2022-08-11T03:15:11;16.90;99.90
30328;DHT22;17133;52.418;13.398;2022-08-11T03:20:19;16.90;99.90
30328;DHT22;17133;52.418;13.398;2022-08-11T03:28:35;16.80;99.90
30328;DHT22;17133;52.418;13.398;2022-08-11T03:31:28;16.80;99.90
30328;DHT22;17133;52.418;13.398;2022-08-11T03:34:08;16.80;99.90
30328;DHT22;17133;52.418;13.398;2022-08-11T03:48:12;16.70;99.90
30328;DHT22;17133;52.418;13.398;2022-08-11T04:02:14;16.60;99.90
30328;DHT22;17133;52.418;13.398;2022-08-11T04:15:43;16.50;99.90
30328;DHT22;17133;52.418;13.398;2022-08-11T04:21:01;16.60;99.90
30328;DHT22;17133;52.418;13.398;2022-08-11T04:32:41;16.40;99.90
30328;DHT22;17133;52.418;13.398;2022-08-11T04:35:15;16.60;99.90
30328;DHT22;17133;52.418;13.398;2022-08-11T04:46:11;16.40;99.90
30328;DHT22;17133;52.418;13.398;2022-08-11T04:58:15;16.50;99.90
30328;DHT22;17133;52.418;13.398;2022-08-11T05:16:12;16.70;99.90
30328;DHT22;17133;52.418;13.398;2022-08-11T05:18:58;16.80;99.90
30328;DHT22;17133;52.418;13.398;2022-08-11T05:21:50;16.80;99.90
30328;DHT22;17133;52.418;13.398;2022-08-11T05:24:49;16.90;99.90
30328;DHT22;17133;52.418;13.398;2022-08-11T05:27:49;17.00;99.90
30328;DHT22;17133;52.418;13.398;2022-08-11T05:30:38;16.40;99.90
30328;DHT22;17133;52.418;13.398;2022-08-11T05:36:47;16.90;99.90
30328;DHT22;17133;52.418;13.398;2022-08-11T05:39:25;17.30;99.90
30328;DHT22;17133;52.418;13.398;2022-08-11T05:42:11;17.30;99.90
30328;DHT22;17133;52.418;13.398;2022-08-11T05:45:04;17.00;99.90
30328;DHT22;17133;52.418;13.398;2022-08-11T05:47:53;17.60;99.90
30328;DHT22;17133;52.418;13.398;2022-08-11T06:06:28;18.20;99.90
30328;DHT22;17133;52.418;13.398;2022-08-11T06:08:55;18.20;99.90
30328;DHT22;17133;52.418;13.398;2022-08-11T06:11:22;18.20;99.90
30328;DHT22;17133;52.418;13.398;2022-08-11T06:13:49;18.30;99.90
30328;DHT22;17133;52.418;13.398;2022-08-11T06:16:21;17.70;99.90
30328;DHT22;17133;52.418;13.398;2022-08-11T06:21:15;18.30;99.90
30328;DHT22;17133;52.418;13.398;2022-08-11T06:23:41;18.40;99.90
30328;DHT22;17133;52.418;13.398;2022-08-11T06:26:12;18.40;99.90
30328;DHT22;17133;52.418;13.398;2022-08-11T06:28:40;18.50;99.90
30328;DHT22;17133;52.418;13.398;2022-08-11T06:31:19;17.80;99.90
30328;DHT22;17133;52.418;13.398;2022-08-11T06:34:06;18.70;99.90
30328;DHT22;17133;52.418;13.398;2022-08-11T06:39:32;19.00;99.90
30328;DHT22;17133;52.418;13.398;2022-08-11T06:42:09;19.40;99.90
30328;DHT22;17133;52.418;13.398;2022-08-11T06:44:59;20.00;99.90
30328;DHT22;17133;52.418;13.398;2022-08-11T06:47:29;20.70;99.90
30328;DHT22;17133;52.418;13.398;2022-08-11T06:49:56;21.40;99.90
30328;DHT22;17133;52.418;13.398;2022-08-11T06:52:43;22.50;99.90
30328;DHT22;17133;52.418;13.398;2022-08-11T06:55:13;22.70;99.90
30328;DHT22;17133;52.418;13.398;2022-08-11T06:58:00;23.30;99.90
30328;DHT22;17133;52.418;13.398;2022-08-11T07:00:47;23.80;99.90
30328;DHT22;17133;52.418;13.398;2022-08-11T07:03:18;24.30;98.10
30328;DHT22;17133;52.418;13.398;2022-08-11T07:05:49;24.80;97.10
30328;DHT22;17133;52.418;13.398;2022-08-11T07:14:33;26.30;90.00
30328;DHT22;17133;52.418;13.398;2022-08-11T07:17:22;26.70;90.10
30328;DHT22;17133;52.418;13.398;2022-08-11T07:19:59;27.00;81.80
30328;DHT22;17133;52.418;13.398;2022-08-11T07:22:54;27.40;82.10
30328;DHT22;17133;52.418;13.398;2022-08-11T07:25:41;27.80;80.00
30328;DHT22;17133;52.418;13.398;2022-08-11T07:28:28;28.00;74.10
30328;DHT22;17133;52.418;13.398;2022-08-11T07:31:17;28.40;75.80
30328;DHT22;17133;52.418;13.398;2022-08-11T07:33:52;28.60;72.40
30328;DHT22;17133;52.418;13.398;2022-08-11T07:36:24;29.00;72.20
30328;DHT22;17133;52.418;13.398;2022-08-11T07:38:53;29.10;68.60
30328;DHT22;17133;52.418;13.398;2022-08-11T07:41:22;29.30;70.00
30328;DHT22;17133;52.418;13.398;2022-08-11T07:43:52;29.30;65.20
30328;DHT22;17133;52.418;13.398;2022-08-11T07:46:19;29.70;68.60
30328;DHT22;17133;52.418;13.398;2022-08-11T07:49:07;29.80;67.10
30328;DHT22;17133;52.418;13.398;2022-08-11T07:51:53;30.00;67.10
30328;DHT22;17133;52.418;13.398;2022-08-11T07:54:38;30.30;65.50
30328;DHT22;17133;52.418;13.398;2022-08-11T07:57:07;30.40;64.60
30328;DHT22;17133;52.418;13.398;2022-08-11T07:59:53;30.60;63.60
30328;DHT22;17133;52.418;13.398;2022-08-11T08:02:39;30.80;61.80
30328;DHT22;17133;52.418;13.398;2022-08-11T08:05:28;30.90;59.90
30328;DHT22;17133;52.418;13.398;2022-08-11T08:08:14;31.00;59.90
30328;DHT22;17133;52.418;13.398;2022-08-11T08:11:04;31.10;58.70
30328;DHT22;17133;52.418;13.398;2022-08-11T08:13:49;31.10;58.10
30328;DHT22;17133;52.418;13.398;2022-08-11T08:16:33;31.40;57.80
30328;DHT22;17133;52.418;13.398;2022-08-11T08:21:46;31.60;58.20
30328;DHT22;17133;52.418;13.398;2022-08-11T08:24:13;31.70;57.70
30328;DHT22;17133;52.418;13.398;2022-08-11T08:26:42;31.70;53.30
30328;DHT22;17133;52.418;13.398;2022-08-11T08:29:28;31.60;51.70
30328;DHT22;17133;52.418;13.398;2022-08-11T08:32:14;31.60;51.60
30328;DHT22;17133;52.418;13.398;2022-08-11T08:34:41;31.70;56.30
30328;DHT22;17133;52.418;13.398;2022-08-11T08:37:07;31.70;54.90
30328;DHT22;17133;52.418;13.398;2022-08-11T08:39:33;31.70;52.10
30328;DHT22;17133;52.418;13.398;2022-08-11T08:42:06;31.70;53.00
30328;DHT22;17133;52.418;13.398;2022-08-11T08:44:35;31.30;70.40
30328;DHT22;17133;52.418;13.398;2022-08-11T08:47:04;32.40;68.50
30328;DHT22;17133;52.418;13.398;2022-08-11T08:49:34;32.10;53.90
30328;DHT22;17133;52.418;13.398;2022-08-11T08:52:02;32.20;54.80
30328;DHT22;17133;52.418;13.398;2022-08-11T08:57:02;32.60;92.10
30328;DHT22;17133;52.418;13.398;2022-08-11T09:02:00;32.60;84.60
30328;DHT22;17133;52.418;13.398;2022-08-11T09:04:27;32.70;82.50
30328;DHT22;17133;52.418;13.398;2022-08-11T09:06:55;32.70;78.10
30328;DHT22;17133;52.418;13.398;2022-08-11T09:09:23;32.70;75.20
30328;DHT22;17133;52.418;13.398;2022-08-11T09:11:49;32.80;79.60
30328;DHT22;17133;52.418;13.398;2022-08-11T09:14:34;32.60;72.70
30328;DHT22;17133;52.418;13.398;2022-08-11T09:17:20;32.70;72.10
30328;DHT22;17133;52.418;13.398;2022-08-11T09:19:46;32.70;53.20
30328;DHT22;17133;52.418;13.398;2022-08-11T09:22:18;33.20;46.80
30328;DHT22;17133;52.418;13.398;2022-08-11T09:25:04;32.10;46.90
30328;DHT22;17133;52.418;13.398;2022-08-11T09:27:51;32.00;48.70
30328;DHT22;17133;52.418;13.398;2022-08-11T09:30:19;32.30;49.50
30328;DHT22;17133;52.418;13.398;2022-08-11T09:32:45;33.80;47.70
30328;DHT22;17133;52.418;13.398;2022-08-11T09:35:11;32.50;45.50
30328;DHT22;17133;52.418;13.398;2022-08-11T09:37:37;34.30;47.40
30328;DHT22;17133;52.418;13.398;2022-08-11T09:40:24;32.50;48.30
30328;DHT22;17133;52.418;13.398;2022-08-11T09:43:06;32.70;50.10
30328;DHT22;17133;52.418;13.398;2022-08-11T09:45:55;32.90;48.10
30328;DHT22;17133;52.418;13.398;2022-08-11T09:48:26;33.90;46.40
30328;DHT22;17133;52.418;13.398;2022-08-11T09:50:55;33.20;46.60
30328;DHT22;17133;52.418;13.398;2022-08-11T09:53:24;33.10;45.80
30328;DHT22;17133;52.418;13.398;2022-08-11T09:55:51;33.00;44.70
30328;DHT22;17133;52.418;13.398;2022-08-11T09:58:18;32.50;42.80
30328;DHT22;17133;52.418;13.398;2022-08-11T10:03:22;32.60;45.20
30328;DHT22;17133;52.418;13.398;2022-08-11T10:05:53;32.80;49.30
30328;DHT22;17133;52.418;13.398;2022-08-11T10:08:41;33.00;44.30
30328;DHT22;17133;52.418;13.398;2022-08-11T10:11:14;32.90;42.40
30328;DHT22;17133;52.418;13.398;2022-08-11T10:13:43;32.80;42.80
30328;DHT22;17133;52.418;13.398;2022-08-11T10:16:34;33.30;44.80
30328;DHT22;17133;52.418;13.398;2022-08-11T10:19:02;33.30;45.50
30328;DHT22;17133;52.418;13.398;2022-08-11T10:21:40;33.70;43.60
30328;DHT22;17133;52.418;13.398;2022-08-11T10:24:07;33.70;44.60
30328;DHT22;17133;52.418;13.398;2022-08-11T10:26:53;33.80;43.10
30328;DHT22;17133;52.418;13.398;2022-08-11T10:29:31;34.00;43.10
30328;DHT22;17133;52.418;13.398;2022-08-11T10:32:27;34.00;43.70
30328;DHT22;17133;52.418;13.398;2022-08-11T10:35:11;34.20;42.50
30328;DHT22;17133;52.418;13.398;2022-08-11T10:37:40;34.00;39.70
30328;DHT22;17133;52.418;13.398;2022-08-11T10:40:08;33.40;40.60
30328;DHT22;17133;52.418;13.398;2022-08-11T10:42:36;33.50;40.00
30328;DHT22;17133;52.418;13.398;2022-08-11T10:45:21;33.60;41.20
30328;DHT22;17133;52.418;13.398;2022-08-11T10:48:07;33.60;38.90
30328;DHT22;17133;52.418;13.398;2022-08-11T10:50:34;33.50;39.40
30328;DHT22;17133;52.418;13.398;2022-08-11T10:53:19;33.50;41.30
30328;DHT22;17133;52.418;13.398;2022-08-11T10:56:04;33.80;43.10
30328;DHT22;17133;52.418;13.398;2022-08-11T10:58:50;34.00;40.50
30328;DHT22;17133;52.418;13.398;2022-08-11T11:01:19;33.80;39.50
30328;DHT22;17133;52.418;13.398;2022-08-11T11:04:01;33.70;41.30
30328;DHT22;17133;52.418;13.398;2022-08-11T11:09:33;34.30;41.60
30328;DHT22;17133;52.418;13.398;2022-08-11T11:12:06;34.50;40.00
30328;DHT22;17133;52.418;13.398;2022-08-11T11:14:52;34.50;40.00
30328;DHT22;17133;52.418;13.398;2022-08-11T11:17:44;34.50;38.90
30328;DHT22;17133;52.418;13.398;2022-08-11T11:20:59;33.90;39.80
30328;DHT22;17133;52.418;13.398;2022-08-11T11:23:48;34.20;40.00
30328;DHT22;17133;52.418;13.398;2022-08-11T11:32:27;33.90;39.10
30328;DHT22;17133;52.418;13.398;2022-08-11T11:37:38;33.60;38.40
30328;DHT22;17133;52.418;13.398;2022-08-11T11:40:11;33.80;40.20
30328;DHT22;17133;52.418;13.398;2022-08-11T11:42:39;34.00;40.40
30328;DHT22;17133;52.418;13.398;2022-08-11T11:45:10;34.20;39.90
30328;DHT22;17133;52.418;13.398;2022-08-11T11:47:37;34.30;39.20
30328;DHT22;17133;52.418;13.398;2022-08-11T11:50:06;34.30;38.60
30328;DHT22;17133;52.418;13.398;2022-08-11T11:52:32;34.10;38.40
30328;DHT22;17133;52.418;13.398;2022-08-11T11:54:59;34.00;39.10
30328;DHT22;17133;52.418;13.398;2022-08-11T11:57:26;34.00;37.20
30328;DHT22;17133;52.418;13.398;2022-08-11T12:00:11;34.00;39.90
30328;DHT22;17133;52.418;13.398;2022-08-11T12:02:57;34.40;38.10
30328;DHT22;17133;52.418;13.398;2022-08-11T12:05:24;33.80;38.20
30328;DHT22;17133;52.418;13.398;2022-08-11T12:07:52;33.90;38.50
30328;DHT22;17133;52.418;13.398;2022-08-11T12:10:46;34.10;38.50
30328;DHT22;17133;52.418;13.398;2022-08-11T12:13:14;34.20;37.20
30328;DHT22;17133;52.418;13.398;2022-08-11T12:15:59;34.20;38.90
30328;DHT22;17133;52.418;13.398;2022-08-11T12:18:37;34.10;38.60
30328;DHT22;17133;52.418;13.398;2022-08-11T12:21:04;34.40;39.00
30328;DHT22;17133;52.418;13.398;2022-08-11T12:23:31;34.50;38.50
30328;DHT22;17133;52.418;13.398;2022-08-11T12:26:17;34.30;38.00
30328;DHT22;17133;52.418;13.398;2022-08-11T12:29:03;34.00;37.10
30328;DHT22;17133;52.418;13.398;2022-08-11T12:31:31;34.20;38.20
30328;DHT22;17133;52.418;13.398;2022-08-11T12:34:01;34.20;38.00
30328;DHT22;17133;52.418;13.398;2022-08-11T12:36:27;34.20;38.60
30328;DHT22;17133;52.418;13.398;2022-08-11T12:38:54;34.30;37.60
30328;DHT22;17133;52.418;13.398;2022-08-11T12:41:21;34.10;36.80
30328;DHT22;17133;52.418;13.398;2022-08-11T12:44:08;33.70;38.10
30328;DHT22;17133;52.418;13.398;2022-08-11T12:46:53;33.70;38.40
30328;DHT22;17133;52.418;13.398;2022-08-11T12:49:21;33.70;38.30
30328;DHT22;17133;52.418;13.398;2022-08-11T12:52:13;33.80;38.10
30328;DHT22;17133;52.418;13.398;2022-08-11T12:54:52;33.90;37.90
30328;DHT22;17133;52.418;13.398;2022-08-11T13:00:16;33.70;37.50
30328;DHT22;17133;52.418;13.398;2022-08-11T13:03:02;33.60;36.80
30328;DHT22;17133;52.418;13.398;2022-08-11T13:05:51;33.50;38.00
30328;DHT22;17133;52.418;13.398;2022-08-11T13:08:21;33.60;37.70
30328;DHT22;17133;52.418;13.398;2022-08-11T13:10:49;33.60;37.30
30328;DHT22;17133;52.418;13.398;2022-08-11T13:13:35;33.60;36.00
30328;DHT22;17133;52.418;13.398;2022-08-11T13:16:01;33.60;36.90
30328;DHT22;17133;52.418;13.398;2022-08-11T13:18:27;33.30;36.90
30328;DHT22;17133;52.418;13.398;2022-08-11T13:20:55;33.50;37.60
30328;DHT22;17133;52.418;13.398;2022-08-11T13:23:22;33.60;37.90
30328;DHT22;17133;52.418;13.398;2022-08-11T13:25:48;33.60;36.50
30328;DHT22;17133;52.418;13.398;2022-08-11T13:28:17;33.40;36.30
30328;DHT22;17133;52.418;13.398;2022-08-11T13:30:44;33.20;36.30
30328;DHT22;17133;52.418;13.398;2022-08-11T13:33:28;32.90;37.90
30328;DHT22;17133;52.418;13.398;2022-08-11T13:35:55;32.70;36.20
30328;DHT22;17133;52.418;13.398;2022-08-11T13:38:22;32.70;35.50
30328;DHT22;17133;52.418;13.398;2022-08-11T13:40:49;32.70;35.50
30328;DHT22;17133;52.418;13.398;2022-08-11T13:43:19;32.50;37.80
30328;DHT22;17133;52.418;13.398;2022-08-11T13:45:46;32.50;37.00
30328;DHT22;17133;52.418;13.398;2022-08-11T13:48:14;32.00;38.00
30328;DHT22;17133;52.418;13.398;2022-08-11T13:53:28;31.50;72.20
30328;DHT22;17133;52.418;13.398;2022-08-11T13:55:56;31.70;36.80
30328;DHT22;17133;52.418;13.398;2022-08-11T13:58:24;31.60;37.70
30328;DHT22;17133;52.418;13.398;2022-08-11T14:00:51;31.60;38.00
30328;DHT22;17133;52.418;13.398;2022-08-11T14:03:24;31.50;38.10
30328;DHT22;17133;52.418;13.398;2022-08-11T14:05:52;31.50;38.50
30328;DHT22;17133;52.418;13.398;2022-08-11T14:08:26;31.50;38.10
30328;DHT22;17133;52.418;13.398;2022-08-11T14:10:58;31.50;38.70
30328;DHT22;17133;52.418;13.398;2022-08-11T14:29:01;30.70;37.50
30328;DHT22;17133;52.418;13.398;2022-08-11T14:31:29;30.60;38.00
30328;DHT22;17133;52.418;13.398;2022-08-11T14:34:00;30.50;38.40
30328;DHT22;17133;52.418;13.398;2022-08-11T14:36:37;30.40;39.10
30328;DHT22;17133;52.418;13.398;2022-08-11T14:39:07;30.20;38.90
30328;DHT22;17133;52.418;13.398;2022-08-11T14:41:36;30.10;36.90
30328;DHT22;17133;52.418;13.398;2022-08-11T14:44:20;30.00;37.60
30328;DHT22;17133;52.418;13.398;2022-08-11T14:47:05;29.90;37.40
30328;DHT22;17133;52.418;13.398;2022-08-11T14:49:36;29.80;37.40
30328;DHT22;17133;52.418;13.398;2022-08-11T14:52:22;29.70;37.80
30328;DHT22;17133;52.418;13.398;2022-08-11T14:54:51;29.60;38.70
30328;DHT22;17133;52.418;13.398;2022-08-11T14:57:52;29.60;38.90
30328;DHT22;17133;52.418;13.398;2022-08-11T15:00:18;29.60;39.00
30328;DHT22;17133;52.418;13.398;2022-08-11T15:02:46;29.50;39.40
30328;DHT22;17133;52.418;13.398;2022-08-11T15:05:32;29.40;39.50
30328;DHT22;17133;52.418;13.398;2022-08-11T15:07:58;29.40;39.50
30328;DHT22;17133;52.418;13.398;2022-08-11T15:10:24;29.30;39.40
30328;DHT22;17133;52.418;13.398;2022-08-11T15:12:51;28.80;39.50
30328;DHT22;17133;52.418;13.398;2022-08-11T15:15:17;29.20;41.90
30328;DHT22;17133;52.418;13.398;2022-08-11T15:18:05;29.10;39.30
30328;DHT22;17133;52.418;13.398;2022-08-11T15:20:32;29.10;40.50
30328;DHT22;17133;52.418;13.398;2022-08-11T15:23:16;29.00;39.40
30328;DHT22;17133;52.418;13.398;2022-08-11T15:26:12;28.90;39.70
30328;DHT22;17133;52.418;13.398;2022-08-11T15:28:46;28.90;39.80
30328;DHT22;17133;52.418;13.398;2022-08-11T15:31:32;29.60;40.90
30328;DHT22;17133;52.418;13.398;2022-08-11T15:34:20;28.80;41.20
30328;DHT22;17133;52.418;13.398;2022-08-11T15:37:11;28.80;39.00
30328;DHT22;17133;52.418;13.398;2022-08-11T15:39:55;28.80;39.30
30328;DHT22;17133;52.418;13.398;2022-08-11T15:42:50;28.70;38.90
30328;DHT22;17133;52.418;13.398;2022-08-11T15:45:38;28.70;38.50
30328;DHT22;17133;52.418;13.398;2022-08-11T15:51:07;28.50;39.40
30328;DHT22;17133;52.418;13.398;2022-08-11T15:53:44;28.50;38.70
30328;DHT22;17133;52.418;13.398;2022-08-11T15:56:11;28.50;39.10
30328;DHT22;17133;52.418;13.398;2022-08-11T15:58:41;28.40;39.30
30328;DHT22;17133;52.418;13.398;2022-08-11T16:01:28;28.50;39.00
30328;DHT22;17133;52.418;13.398;2022-08-11T16:04:16;28.40;38.40
30328;DHT22;17133;52.418;13.398;2022-08-11T16:06:56;28.40;38.20
30328;DHT22;17133;52.418;13.398;2022-08-11T16:09:37;28.30;38.10
30328;DHT22;17133;52.418;13.398;2022-08-11T16:12:07;28.40;38.80
30328;DHT22;17133;52.418;13.398;2022-08-11T16:14:44;28.30;38.30
30328;DHT22;17133;52.418;13.398;2022-08-11T16:17:32;28.30;38.20
30328;DHT22;17133;52.418;13.398;2022-08-11T16:19:59;28.30;37.40
30328;DHT22;17133;52.418;13.398;2022-08-11T16:22:31;28.30;37.80
30328;DHT22;17133;52.418;13.398;2022-08-11T16:25:05;28.30;37.30
30328;DHT22;17133;52.418;13.398;2022-08-11T16:27:34;28.20;37.50
30328;DHT22;17133;52.418;13.398;2022-08-11T16:30:01;28.20;36.70
30328;DHT22;17133;52.418;13.398;2022-08-11T16:32:28;28.20;36.40
30328;DHT22;17133;52.418;13.398;2022-08-11T16:35:00;28.10;36.80
30328;DHT22;17133;52.418;13.398;2022-08-11T16:37:46;28.10;36.40
30328;DHT22;17133;52.418;13.398;2022-08-11T16:40:31;28.00;36.90
30328;DHT22;17133;52.418;13.398;2022-08-11T16:42:58;28.00;35.50
30328;DHT22;17133;52.418;13.398;2022-08-11T16:45:43;28.00;36.20
30328;DHT22;17133;52.418;13.398;2022-08-11T16:48:33;28.00;37.10
30328;DHT22;17133;52.418;13.398;2022-08-11T16:51:00;27.90;37.50
30328;DHT22;17133;52.418;13.398;2022-08-11T16:53:29;27.90;37.80
30328;DHT22;17133;52.418;13.398;2022-08-11T16:55:55;27.90;37.70
30328;DHT22;17133;52.418;13.398;2022-08-11T16:58:23;27.80;37.20
30328;DHT22;17133;52.418;13.398;2022-08-11T17:01:08;27.80;36.50
30328;DHT22;17133;52.418;13.398;2022-08-11T17:03:42;27.70;36.20
30328;DHT22;17133;52.418;13.398;2022-08-11T17:06:28;27.70;36.70
30328;DHT22;17133;52.418;13.398;2022-08-11T17:09:17;27.70;36.60
30328;DHT22;17133;52.418;13.398;2022-08-11T17:12:04;29.60;38.10
30328;DHT22;17133;52.418;13.398;2022-08-11T17:14:53;27.80;36.70
30328;DHT22;17133;52.418;13.398;2022-08-11T17:17:32;27.50;37.00
30328;DHT22;17133;52.418;13.398;2022-08-11T17:20:05;27.50;36.50
30328;DHT22;17133;52.418;13.398;2022-08-11T17:22:38;27.40;37.40
30328;DHT22;17133;52.418;13.398;2022-08-11T17:25:24;27.40;37.60
30328;DHT22;17133;52.418;13.398;2022-08-11T17:27:53;27.40;38.10
30328;DHT22;17133;52.418;13.398;2022-08-11T17:30:19;27.30;37.80
30328;DHT22;17133;52.418;13.398;2022-08-11T17:32:51;27.20;38.20
30328;DHT22;17133;52.418;13.398;2022-08-11T17:35:37;27.20;37.90
30328;DHT22;17133;52.418;13.398;2022-08-11T17:38:14;27.20;38.00
30328;DHT22;17133;52.418;13.398;2022-08-11T17:40:44;27.10;38.20
30328;DHT22;17133;52.418;13.398;2022-08-11T17:43:29;27.00;38.30
30328;DHT22;17133;52.418;13.398;2022-08-11T17:46:15;27.00;39.00
30328;DHT22;17133;52.418;13.398;2022-08-11T17:49:01;26.90;39.00
30328;DHT22;17133;52.418;13.398;2022-08-11T17:51:28;26.80;39.30
30328;DHT22;17133;52.418;13.398;2022-08-11T17:54:30;26.70;39.00
30328;DHT22;17133;52.418;13.398;2022-08-11T17:57:22;26.70;39.60
30328;DHT22;17133;52.418;13.398;2022-08-11T18:00:08;26.60;39.90
30328;DHT22;17133;52.418;13.398;2022-08-11T18:02:38;26.60;40.10
30328;DHT22;17133;52.418;13.398;2022-08-11T18:05:26;26.50;40.40
30328;DHT22;17133;52.418;13.398;2022-08-11T18:07:55;26.40;40.60
30328;DHT22;17133;52.418;13.398;2022-08-11T18:10:41;26.40;41.00
30328;DHT22;17133;52.418;13.398;2022-08-11T18:13:36;26.30;41.40
30328;DHT22;17133;52.418;13.398;2022-08-11T18:16:21;26.20;41.60
30328;DHT22;17133;52.418;13.398;2022-08-11T18:19:06;26.10;41.60
30328;DHT22;17133;52.418;13.398;2022-08-11T18:21:54;26.10;53.20
30328;DHT22;17133;52.418;13.398;2022-08-11T18:24:44;26.10;54.80
30328;DHT22;17133;52.418;13.398;2022-08-11T18:27:31;25.90;47.90
30328;DHT22;17133;52.418;13.398;2022-08-11T18:30:16;25.90;43.70
30328;DHT22;17133;52.418;13.398;2022-08-11T18:33:02;25.70;43.50
30328;DHT22;17133;52.418;13.398;2022-08-11T18:35:49;25.70;44.10
30328;DHT22;17133;52.418;13.398;2022-08-11T18:38:35;25.60;45.40
30328;DHT22;17133;52.418;13.398;2022-08-11T18:41:21;25.80;45.50
30328;DHT22;17133;52.418;13.398;2022-08-11T18:44:07;25.30;45.90
30328;DHT22;17133;52.418;13.398;2022-08-11T18:46:54;25.20;46.40
30328;DHT22;17133;52.418;13.398;2022-08-11T18:49:42;25.10;46.70
30328;DHT22;17133;52.418;13.398;2022-08-11T18:52:29;25.10;47.60
30328;DHT22;17133;52.418;13.398;2022-08-11T18:55:16;24.90;48.40
30328;DHT22;17133;52.418;13.398;2022-08-11T18:58:04;24.90;48.40
30328;DHT22;17133;52.418;13.398;2022-08-11T19:00:49;24.70;49.00
30328;DHT22;17133;52.418;13.398;2022-08-11T19:03:36;24.60;49.50
30328;DHT22;17133;52.418;13.398;2022-08-11T19:06:23;24.50;49.80
30328;DHT22;17133;52.418;13.398;2022-08-11T19:09:11;24.40;50.20
30328;DHT22;17133;52.418;13.398;2022-08-11T19:11:56;24.30;50.60
30328;DHT22;17133;52.418;13.398;2022-08-11T19:14:42;24.20;50.20
30328;DHT22;17133;52.418;13.398;2022-08-11T19:17:29;24.20;51.00
30328;DHT22;17133;52.418;13.398;2022-08-11T19:20:16;24.00;50.20
30328;DHT22;17133;52.418;13.398;2022-08-11T19:23:05;23.90;50.40
30328;DHT22;17133;52.418;13.398;2022-08-11T19:25:49;23.80;51.10
30328;DHT22;17133;52.418;13.398;2022-08-11T19:28:35;23.70;50.90
30328;DHT22;17133;52.418;13.398;2022-08-11T19:31:21;23.70;51.40
30328;DHT22;17133;52.418;13.398;2022-08-11T19:34:06;23.50;51.50
30328;DHT22;17133;52.418;13.398;2022-08-11T19:36:52;23.40;51.80
30328;DHT22;17133;52.418;13.398;2022-08-11T19:39:39;23.40;51.90
30328;DHT22;17133;52.418;13.398;2022-08-11T19:42:23;23.30;52.30
30328;DHT22;17133;52.418;13.398;2022-08-11T19:45:08;23.20;52.50
30328;DHT22;17133;52.418;13.398;2022-08-11T19:47:54;23.10;53.00
30328;DHT22;17133;52.418;13.398;2022-08-11T19:50:38;23.10;54.00
30328;DHT22;17133;52.418;13.398;2022-08-11T19:53:25;23.00;53.60
30328;DHT22;17133;52.418;13.398;2022-08-11T19:56:10;21.90;53.20
30328;DHT22;17133;52.418;13.398;2022-08-11T19:58:56;22.80;53.70
30328;DHT22;17133;52.418;13.398;2022-08-11T20:01:41;22.70;53.60
30328;DHT22;17133;52.418;13.398;2022-08-11T20:04:25;22.60;54.20
30328;DHT22;17133;52.418;13.398;2022-08-11T20:07:09;22.50;54.60
30328;DHT22;17133;52.418;13.398;2022-08-11T20:09:57;22.60;55.00
30328;DHT22;17133;52.418;13.398;2022-08-11T20:12:42;22.40;55.30
30328;DHT22;17133;52.418;13.398;2022-08-11T20:15:28;22.30;55.40
30328;DHT22;17133;52.418;13.398;2022-08-11T20:18:13;22.30;56.00
30328;DHT22;17133;52.418;13.398;2022-08-11T20:20:59;22.20;56.10